Time;durP1;ratioP1;P1;durP2;ratioP2;P2;SDS_P1;SDS_P2;PMS_P1;PMS_P2;Temp;Humidity;BMP_temperature;BMP_pressure;BME280_temperature;BME280_humidity;BME280_pressure;Samples;Min_cycle;Max_cycle;Signal;HPM_P1;HPM_P2
2021/12/18 00:02:23;;;;;;;29.23;17.30;;;;;;;7.14;83.44;103073.72;4930697;29;20058;-66
2021/12/18 00:04:51;;;;;;;33.95;18.33;;;;;;;6.92;84.35;103080.78;4934987;29;20040;-66
2021/12/18 00:07:18;;;;;;;35.50;17.63;;;;;;;6.76;85.84;103070.47;4937478;29;20515;-67
2021/12/18 00:09:46;;;;;;;33.20;18.55;;;;;;;6.88;84.65;103074.09;4922666;29;20067;-66
2021/12/18 00:12:14;;;;;;;32.80;18.80;;;;;;;6.87;84.36;103064.16;4923123;29;20060;-66
2021/12/18 00:14:44;;;;;;;31.42;17.92;;;;;;;6.92;84.09;103077.19;4937840;29;20060;-67
2021/12/18 00:17:11;;;;;;;30.83;17.05;;;;;;;6.93;84.19;103062.41;4940578;29;20515;-66
2021/12/18 00:19:39;;;;;;;29.75;18.05;;;;;;;6.81;85.14;103065.13;4937690;29;20059;-67
2021/12/18 00:22:07;;;;;;;33.63;18.17;;;;;;;7.02;84.50;103063.75;4940695;29;20059;-66
2021/12/18 00:24:34;;;;;;;31.90;18.88;;;;;;;6.94;84.42;103062.19;4939695;29;20035;-66
2021/12/18 00:27:01;;;;;;;34.63;19.67;;;;;;;6.97;84.38;103052.69;4935533;29;20048;-67
2021/12/18 00:29:29;;;;;;;37.40;20.35;;;;;;;6.86;84.47;103051.56;4935799;29;20436;-66
2021/12/18 00:31:57;;;;;;;36.58;20.92;;;;;;;6.92;84.50;103055.28;4940250;29;20495;-67
2021/12/18 00:34:24;;;;;;;35.67;19.83;;;;;;;7.00;84.39;103052.19;4937447;29;20070;-66
2021/12/18 00:36:51;;;;;;;33.22;19.35;;;;;;;6.96;83.99;103049.09;4939363;29;20060;-66
2021/12/18 00:39:19;;;;;;;31.85;19.15;;;;;;;6.93;84.36;103065.16;4939164;29;20414;-66
2021/12/18 00:42:00;;;;;;;31.88;18.80;;;;;;;6.83;84.41;103058.31;4940137;29;20055;-66
2021/12/18 00:44:27;;;;;;;32.30;18.58;;;;;;;7.04;83.72;103046.03;4940139;29;20052;-65
2021/12/18 00:46:55;;;;;;;37.38;18.38;;;;;;;6.97;83.30;103052.69;4935430;29;20048;-65
2021/12/18 00:49:24;;;;;;;33.65;18.38;;;;;;;6.92;83.03;103052.53;4939133;29;20056;-65
2021/12/18 00:51:51;;;;;;;31.63;18.90;;;;;;;6.81;83.02;103049.53;4937498;29;20060;-65
2021/12/18 00:54:18;;;;;;;29.20;17.75;;;;;;;6.69;84.02;103043.13;4938247;29;20067;-66
2021/12/18 00:56:46;;;;;;;31.67;17.90;;;;;;;6.88;83.46;103035.72;4939809;29;20060;-65
2021/12/18 00:59:13;;;;;;;32.65;18.63;;;;;;;6.92;83.23;103047.91;4940109;29;20052;-65
2021/12/18 01:01:40;;;;;;;29.70;18.20;;;;;;;6.88;83.04;103043.94;4939947;29;20078;-68
2021/12/18 01:04:08;;;;;;;27.27;16.30;;;;;;;6.91;83.50;103038.00;4938422;29;20060;-65
2021/12/18 01:06:35;;;;;;;30.85;18.02;;;;;;;6.72;83.87;103042.69;4939522;29;20499;-66
2021/12/18 01:09:02;;;;;;;33.00;18.63;;;;;;;6.62;84.05;103042.41;4939209;29;20051;-65
2021/12/18 01:11:36;;;;;;;30.67;16.80;;;;;;;6.30;84.98;103040.91;4939572;29;20055;-65
2021/12/18 01:22:44;;;;;;;26.00;16.30;;;;;;;6.29;86.40;103052.09;4939555;29;20518;-65
2021/12/18 01:24:50;;;;;;;31.83;16.60;;;;;;;6.59;84.80;103056.53;4920258;29;20052;-65
2021/12/18 01:27:17;;;;;;;28.13;16.92;;;;;;;6.48;84.14;103054.59;4919802;29;20067;-66
2021/12/18 01:29:45;;;;;;;33.03;17.48;;;;;;;6.29;85.15;103058.41;4920549;29;20154;-64
2021/12/18 01:32:12;;;;;;;27.88;16.85;;;;;;;6.24;85.73;103052.75;4920431;29;20047;-65
2021/12/18 01:34:39;;;;;;;27.27;17.50;;;;;;;6.37;85.48;103055.34;4920330;29;20063;-65
2021/12/18 01:37:06;;;;;;;27.90;16.30;;;;;;;6.65;83.71;103052.06;4920430;29;20063;-64
2021/12/18 01:39:34;;;;;;;25.75;16.23;;;;;;;6.60;83.19;103047.28;4938852;29;20048;-65
2021/12/18 01:42:47;;;;;;;28.30;16.00;;;;;;;6.69;83.25;103056.81;4937501;29;20066;-65
2021/12/18 01:53:13;;;;;;;24.73;15.88;;;;;;;6.44;82.99;103061.59;4937188;29;20056;-66
2021/12/18 01:55:41;;;;;;;25.30;14.95;;;;;;;6.49;83.29;103059.00;4937604;29;20055;-66
2021/12/18 01:58:08;;;;;;;23.27;15.45;;;;;;;6.08;84.12;103067.06;4934664;29;20063;-65
2021/12/18 02:00:41;;;;;;;25.35;15.57;;;;;;;6.26;84.45;103069.78;4938882;29;20059;-65
2021/12/18 02:03:09;;;;;;;23.75;15.52;;;;;;;6.18;83.55;103059.16;4937477;29;20051;-66
2021/12/18 02:05:40;;;;;;;25.42;15.20;;;;;;;6.37;83.60;103060.84;4938176;29;20052;-65
2021/12/18 02:08:08;;;;;;;25.73;15.95;;;;;;;6.36;83.22;103067.34;4927740;29;20063;-65
2021/12/18 02:10:49;;;;;;;23.33;15.98;;;;;;;6.31;82.68;103064.47;4937159;29;20052;-66
2021/12/18 02:21:35;;;;;;;25.15;15.70;;;;;;;5.91;85.91;103068.69;4936276;29;20550;-66
2021/12/18 02:24:03;;;;;;;25.00;15.68;;;;;;;5.98;84.69;103063.16;4936828;29;20048;-67
2021/12/18 02:26:30;;;;;;;24.90;15.82;;;;;;;5.93;85.25;103058.34;4938328;29;20055;-67
2021/12/18 02:29:00;;;;;;;23.48;15.30;;;;;;;5.94;84.95;103073.72;4938272;29;20557;-66
2021/12/18 02:31:28;;;;;;;26.48;16.40;;;;;;;5.93;84.45;103071.22;4938299;29;20059;-66
2021/12/18 02:33:56;;;;;;;22.90;15.43;;;;;;;6.00;83.97;103078.28;4938547;29;20052;-67
2021/12/18 02:36:25;;;;;;;23.50;15.68;;;;;;;6.21;83.32;103066.91;4938354;29;20067;-67
2021/12/18 02:41:45;;;;;;;22.30;16.23;;;;;;;5.98;83.83;103071.38;4938063;29;20051;-68
2021/12/18 02:44:13;;;;;;;23.45;15.90;;;;;;;5.81;84.54;103067.50;4938081;29;20576;-66
2021/12/18 02:46:40;;;;;;;25.35;16.58;;;;;;;5.70;84.92;103066.34;4936474;29;20074;-67
2021/12/18 02:49:17;;;;;;;25.80;16.48;;;;;;;5.75;84.74;103067.31;4937832;29;20062;-65
2021/12/18 02:51:44;;;;;;;24.80;16.65;;;;;;;5.73;84.71;103058.53;4937841;29;20502;-66
2021/12/18 02:54:11;;;;;;;24.27;16.45;;;;;;;5.80;84.75;103063.94;4920013;29;20067;-67
2021/12/18 02:56:38;;;;;;;23.83;16.52;;;;;;;5.63;85.57;103066.38;4936526;29;20066;-67
2021/12/18 02:59:08;;;;;;;27.77;17.95;;;;;;;5.77;84.86;103066.28;4932066;29;20610;-65
2021/12/18 03:01:39;;;;;;;26.10;18.15;;;;;;;5.64;84.86;103067.22;4917691;29;20491;-66
2021/12/18 03:07:07;;;;;;;26.88;17.52;;;;;;;5.82;84.54;103067.28;4932972;29;20519;-65
2021/12/18 03:21:36;;;;;;;27.13;20.08;;;;;;;5.53;85.00;103073.41;4941605;29;20329;-65
2021/12/18 03:23:46;;;;;;;28.98;21.13;;;;;;;5.51;85.99;103059.97;4922328;29;20060;-67
2021/12/18 03:26:14;;;;;;;30.05;21.15;;;;;;;5.61;85.82;103070.41;4922594;29;20496;-66
2021/12/18 03:28:42;;;;;;;30.08;21.40;;;;;;;5.55;85.53;103068.56;4922963;29;20072;-67
2021/12/18 03:31:09;;;;;;;30.30;21.65;;;;;;;5.66;85.59;103060.50;4922319;29;20511;-68
2021/12/18 03:33:37;;;;;;;30.38;21.52;;;;;;;5.64;85.15;103054.41;4922496;29;20055;-67
2021/12/18 03:36:07;;;;;;;29.92;21.23;;;;;;;5.66;85.59;103060.50;4926414;29;20055;-67
2021/12/18 03:38:34;;;;;;;33.85;22.17;;;;;;;5.49;85.71;103064.00;4941146;29;20056;-66
2021/12/18 03:41:02;;;;;;;29.95;20.90;;;;;;;5.27;86.42;103063.53;4941271;29;20475;-65
2021/12/18 03:43:29;;;;;;;32.08;21.42;;;;;;;5.34;86.61;103056.13;4939989;29;20510;-65
2021/12/18 03:45:56;;;;;;;31.63;22.10;;;;;;;5.32;87.23;103063.69;4940846;29;20535;-65
2021/12/18 03:48:23;;;;;;;32.65;23.23;;;;;;;5.27;87.55;103051.75;4941244;29;20056;-66
2021/12/18 03:50:52;;;;;;;32.85;22.50;;;;;;;5.35;87.33;103056.97;4939734;29;20052;-66
2021/12/18 03:53:20;;;;;;;29.35;21.13;;;;;;;5.40;87.74;103047.06;4940870;29;20082;-65
2021/12/18 03:55:47;;;;;;;33.03;22.17;;;;;;;5.39;87.92;103049.97;4940779;29;20060;-66
2021/12/18 03:58:14;;;;;;;34.70;22.77;;;;;;;5.30;89.07;103054.06;4940715;29;20062;-66
2021/12/18 04:00:41;;;;;;;32.72;23.33;;;;;;;5.43;88.84;103043.88;4925211;29;20067;-67
2021/12/18 04:03:09;;;;;;;33.90;23.27;;;;;;;5.54;88.67;103043.13;4931896;29;20059;-65
2021/12/18 04:05:36;;;;;;;33.65;22.88;;;;;;;5.40;88.02;103049.78;4940715;29;20051;-65
2021/12/18 04:08:10;;;;;;;33.40;23.35;;;;;;;5.45;88.50;103040.91;4939347;29;20048;-66
2021/12/18 04:10:40;;;;;;;33.50;22.55;;;;;;;5.46;88.93;103042.56;4940610;29;20051;-65
2021/12/18 04:13:08;;;;;;;32.15;22.35;;;;;;;5.59;88.20;103043.31;4939451;29;20060;-66
2021/12/18 04:15:36;;;;;;;32.95;22.52;;;;;;;5.61;88.56;103038.44;4940634;29;20055;-66
2021/12/18 04:18:04;;;;;;;36.38;24.80;;;;;;;5.69;88.46;103046.38;4940491;29;20518;-66
2021/12/18 04:20:31;;;;;;;32.08;22.20;;;;;;;5.35;89.56;103048.78;4938897;29;20509;-65
2021/12/18 04:22:58;;;;;;;34.60;23.70;;;;;;;5.63;89.75;103046.44;4940324;29;20071;-66
2021/12/18 04:25:26;;;;;;;34.47;23.73;;;;;;;5.63;88.69;103044.50;4938919;29;20058;-65
2021/12/18 04:27:53;;;;;;;32.97;23.33;;;;;;;5.81;88.55;103041.00;4940251;29;20047;-66
2021/12/18 04:30:20;;;;;;;30.48;22.15;;;;;;;6.14;87.06;103043.41;4940314;29;20087;-66
2021/12/18 04:32:48;;;;;;;32.92;22.63;;;;;;;6.13;85.89;103055.44;4939117;29;20047;-66
2021/12/18 04:35:15;;;;;;;31.80;22.38;;;;;;;6.07;85.68;103048.94;4938866;29;20063;-66
2021/12/18 04:37:42;;;;;;;30.88;21.95;;;;;;;6.12;85.70;103046.38;4938351;29;20055;-66
2021/12/18 04:40:10;;;;;;;30.85;21.63;;;;;;;5.95;86.29;103050.78;4938808;29;20058;-66
2021/12/18 04:42:37;;;;;;;28.13;20.80;;;;;;;5.72;86.92;103056.00;4940221;29;20055;-65
2021/12/18 04:45:05;;;;;;;32.75;22.42;;;;;;;5.80;87.34;103049.41;4940091;29;20058;-65
2021/12/18 04:47:33;;;;;;;32.70;23.38;;;;;;;5.94;87.23;103043.63;4940009;29;20056;-66
2021/12/18 04:50:00;;;;;;;36.53;22.48;;;;;;;6.02;86.50;103043.31;4937973;29;20060;-66
2021/12/18 04:52:27;;;;;;;30.92;22.17;;;;;;;6.02;86.22;103045.22;4940073;29;20392;-66
2021/12/18 04:54:55;;;;;;;29.90;22.65;;;;;;;6.07;86.25;103048.94;4939738;29;20388;-66
2021/12/18 04:57:22;;;;;;;33.10;22.83;;;;;;;6.06;86.16;103052.75;4939927;29;20048;-66
2021/12/18 04:59:50;;;;;;;32.45;23.08;;;;;;;5.98;86.73;103057.69;4935582;29;20067;-67
2021/12/18 05:02:20;;;;;;;33.92;22.77;;;;;;;6.11;86.79;103052.06;4938779;29;20055;-66
2021/12/18 05:04:48;;;;;;;32.00;23.38;;;;;;;6.09;86.80;103057.78;4921995;29;20056;-66
2021/12/18 05:07:15;;;;;;;30.00;22.17;;;;;;;6.21;86.29;103058.69;4939400;29;20642;-67
2021/12/18 05:09:43;;;;;;;33.22;23.35;;;;;;;6.23;86.17;103062.03;4939457;29;20052;-66
2021/12/18 05:12:11;;;;;;;31.50;23.00;;;;;;;6.30;86.32;103071.00;4938411;29;20047;-66
2021/12/18 05:14:38;;;;;;;33.90;22.83;;;;;;;6.17;85.59;103060.19;4939050;29;20051;-67
2021/12/18 05:17:05;;;;;;;32.42;23.02;;;;;;;6.18;85.91;103067.38;4938971;29;20047;-67
2021/12/18 05:19:32;;;;;;;31.70;23.17;;;;;;;6.26;85.96;103066.25;4938218;29;20051;-66
2021/12/18 05:22:00;;;;;;;32.95;23.48;;;;;;;6.31;85.60;103061.72;4936682;29;20054;-67
2021/12/18 05:24:27;;;;;;;34.33;24.35;;;;;;;6.40;85.50;103065.84;4938561;29;20055;-65
2021/12/18 05:26:54;;;;;;;34.88;24.23;;;;;;;6.36;85.25;103064.63;4938427;29;20056;-66
2021/12/18 05:29:22;;;;;;;31.30;22.80;;;;;;;6.30;85.24;103060.06;4938955;29;20066;-66
2021/12/18 05:31:49;;;;;;;32.10;23.13;;;;;;;6.28;85.40;103064.94;4938688;29;20055;-66
2021/12/18 05:34:22;;;;;;;31.38;22.35;;;;;;;6.21;85.48;103068.78;4937993;29;20055;-66
2021/12/18 05:39:18;;;;;;;31.77;23.10;;;;;;;6.40;85.62;103059.50;4937822;29;20047;-66
2021/12/18 05:41:47;;;;;;;33.90;23.98;;;;;;;6.66;84.73;103059.19;4937383;29;20555;-67
2021/12/18 05:44:15;;;;;;;31.45;23.30;;;;;;;6.64;84.06;103061.34;4937483;29;20058;-67
2021/12/18 05:46:42;;;;;;;32.38;23.70;;;;;;;6.37;84.52;103057.25;4937467;29;20060;-67
2021/12/18 05:49:09;;;;;;;31.38;23.35;;;;;;;6.34;84.97;103053.09;4938007;29;20047;-66
2021/12/18 05:51:37;;;;;;;29.70;21.20;;;;;;;6.38;84.47;103056.19;4937427;29;20051;-66
2021/12/18 05:54:05;;;;;;;32.10;23.17;;;;;;;6.21;85.56;103055.97;4937145;29;20411;-66
2021/12/18 05:56:33;;;;;;;32.53;23.13;;;;;;;6.22;84.84;103046.69;4937506;29;20435;-66
2021/12/18 05:59:00;;;;;;;30.52;22.00;;;;;;;6.28;85.28;103048.50;4926858;29;20051;-66
2021/12/18 06:01:27;;;;;;;33.50;24.05;;;;;;;6.24;85.04;103051.94;4936134;29;20055;-67
2021/12/18 06:03:55;;;;;;;31.88;22.23;;;;;;;6.18;84.88;103059.16;4937711;29;20413;-66
2021/12/18 06:06:23;;;;;;;31.90;22.88;;;;;;;6.43;84.58;103046.22;4936473;29;20523;-66
2021/12/18 06:08:51;;;;;;;31.95;22.77;;;;;;;6.53;83.83;103053.91;4936227;29;20051;-66
2021/12/18 06:11:21;;;;;;;31.60;21.38;;;;;;;6.61;83.11;103056.31;4936671;29;20127;-67
2021/12/18 06:13:50;;;;;;;30.73;21.13;;;;;;;6.64;83.07;103044.91;4938017;29;20058;-66
2021/12/18 06:16:19;;;;;;;30.00;21.73;;;;;;;6.63;82.81;103048.69;4935713;29;20043;-66
2021/12/18 06:18:49;;;;;;;28.92;22.02;;;;;;;6.48;83.09;103042.81;4937989;29;20048;-66
2021/12/18 06:21:18;;;;;;;27.05;20.90;;;;;;;6.49;83.15;103047.19;4937046;29;20055;-67
2021/12/18 06:23:48;;;;;;;30.10;22.30;;;;;;;6.47;82.86;103049.31;4936932;29;20063;-66
2021/12/18 06:26:15;;;;;;;;;;;;;;;6.43;82.71;103048.94;4937681;29;20063;-68
2021/12/18 06:28:42;;;;;;;30.17;21.17;;;;;;;6.37;83.65;103044.41;4938156;29;19923;-66
2021/12/18 06:31:29;;;;;;;29.10;21.23;;;;;;;6.52;82.58;103041.28;4937666;29;20055;-66
2021/12/18 06:33:57;;;;;;;29.20;21.98;;;;;;;6.53;82.30;103045.69;4938232;29;20095;-66
2021/12/18 06:36:25;;;;;;;27.83;20.50;;;;;;;6.31;82.40;103045.31;4936980;29;20059;-66
2021/12/18 06:38:52;;;;;;;28.95;20.05;;;;;;;6.48;81.98;103037.31;4937329;29;20141;-66
2021/12/18 06:41:19;;;;;;;27.63;20.48;;;;;;;6.45;82.28;103049.56;4937883;29;20051;-65
2021/12/18 06:43:46;;;;;;;32.90;21.30;;;;;;;6.51;81.75;103048.66;4936152;29;20055;-66
2021/12/18 06:46:13;;;;;;;28.17;21.02;;;;;;;6.69;81.98;103043.13;4937152;29;20052;-66
2021/12/18 06:48:41;;;;;;;30.98;22.85;;;;;;;6.59;81.84;103053.00;4937233;29;20048;-65
2021/12/18 06:51:08;;;;;;;31.30;21.48;;;;;;;6.39;83.01;103050.50;4937090;29;20387;-66
2021/12/18 06:53:35;;;;;;;29.80;20.63;;;;;;;6.31;83.34;103055.44;4937624;29;20534;-66
2021/12/18 06:56:03;;;;;;;30.13;20.83;;;;;;;6.34;82.86;103053.09;4935609;29;20070;-66
2021/12/18 06:58:31;;;;;;;29.60;21.13;;;;;;;6.45;83.30;103057.78;4937831;29;20047;-66
2021/12/18 07:00:58;;;;;;;29.42;20.45;;;;;;;6.45;82.95;103063.25;4934476;29;20066;-66
2021/12/18 07:03:26;;;;;;;30.02;21.05;;;;;;;6.57;82.75;103060.59;4936883;29;20059;-65
2021/12/18 07:05:53;;;;;;;32.03;20.67;;;;;;;6.74;81.98;103051.53;4936335;29;20043;-66
2021/12/18 07:08:21;;;;;;;34.05;20.80;;;;;;;6.66;81.99;103054.56;4919902;29;20083;-65
2021/12/18 07:10:48;;;;;;;28.70;21.00;;;;;;;6.61;82.65;103057.16;4918563;29;20059;-66
2021/12/18 07:13:15;;;;;;;31.38;20.67;;;;;;;6.49;82.56;103064.47;4918520;29;20052;-66
2021/12/18 07:15:43;;;;;;;31.73;22.05;;;;;;;6.06;85.04;103066.44;4918627;29;20055;-65
2021/12/18 07:18:10;;;;;;;31.42;21.50;;;;;;;6.34;84.57;103066.78;4932806;29;20051;-67
2021/12/18 07:20:37;;;;;;;33.33;21.63;;;;;;;6.45;83.64;103068.72;4901015;29;20059;-66
2021/12/18 07:23:04;;;;;;;29.33;20.90;;;;;;;6.19;84.93;103076.41;4939364;29;20599;-66
2021/12/18 07:25:32;;;;;;;30.52;20.23;;;;;;;6.11;84.76;103066.59;4936870;29;20499;-65
2021/12/18 07:27:59;;;;;;;29.33;20.83;;;;;;;6.21;84.37;103079.75;4937175;29;20052;-66
2021/12/18 07:30:27;;;;;;;31.63;20.55;;;;;;;5.90;85.75;103075.22;4937049;29;20060;-67
2021/12/18 07:32:55;;;;;;;35.33;20.98;;;;;;;6.07;85.66;103078.19;4934968;29;20067;-67
2021/12/18 07:35:22;;;;;;;28.27;20.48;;;;;;;6.20;84.87;103081.66;4935711;29;20055;-66
2021/12/18 07:37:49;;;;;;;30.20;20.95;;;;;;;6.06;84.65;103085.59;4935432;29;20062;-65
2021/12/18 07:40:17;;;;;;;30.08;20.17;;;;;;;6.11;84.22;103085.75;4937215;29;20055;-66
2021/12/18 07:42:44;;;;;;;28.67;20.83;;;;;;;5.86;85.92;103087.66;4937145;29;20057;-66
2021/12/18 07:45:12;;;;;;;29.42;20.92;;;;;;;5.88;85.70;103084.69;4937084;29;20051;-66
2021/12/18 07:47:40;;;;;;;32.22;20.63;;;;;;;6.12;84.96;103081.94;4936767;29;20140;-66
2021/12/18 07:50:12;;;;;;;29.45;21.65;;;;;;;5.83;85.90;103088.13;4931827;29;20067;-66
2021/12/18 07:52:39;;;;;;;32.70;20.77;;;;;;;5.79;86.64;103084.13;4935510;29;20063;-66
2021/12/18 07:55:07;;;;;;;31.33;20.65;;;;;;;5.76;86.42;103087.31;4934224;29;20098;-66
2021/12/18 07:57:36;;;;;;;34.97;21.95;;;;;;;5.42;87.58;103090.56;4923254;29;20380;-66
2021/12/18 08:00:05;;;;;;;30.50;21.15;;;;;;;5.51;87.71;103089.19;4929144;29;20047;-67
2021/12/18 08:02:33;;;;;;;30.08;20.95;;;;;;;5.54;87.39;103081.38;4939032;29;20050;-66
2021/12/18 08:05:00;;;;;;;30.08;20.98;;;;;;;5.44;87.64;103082.97;4917295;29;20047;-66
2021/12/18 08:07:28;;;;;;;30.52;21.02;;;;;;;5.47;88.26;103090.72;4937216;29;20670;-66
2021/12/18 08:09:55;;;;;;;32.90;21.00;;;;;;;5.77;86.79;103075.31;4930947;29;20119;-66
2021/12/18 08:12:22;;;;;;;31.65;20.40;;;;;;;5.89;85.64;103079.03;4931553;29;20058;-66
2021/12/18 08:14:50;;;;;;;31.25;20.70;;;;;;;5.88;85.68;103077.34;4942466;29;20047;-67
2021/12/18 08:17:17;;;;;;;30.00;19.98;;;;;;;5.70;85.25;103088.22;4940248;28;21426;-66
2021/12/18 08:19:45;;;;;;;29.75;20.25;;;;;;;5.40;87.13;103084.47;4933876;29;20048;-66
2021/12/18 08:22:13;;;;;;;29.13;20.23;;;;;;;5.62;87.22;103085.75;4935374;29;20055;-65
2021/12/18 08:24:40;;;;;;;29.52;20.40;;;;;;;5.68;85.82;103082.13;4935771;29;20058;-66
2021/12/18 08:27:08;;;;;;;29.10;19.73;;;;;;;5.53;86.80;103089.81;4916528;29;20129;-66
2021/12/18 08:29:35;;;;;;;31.15;21.05;;;;;;;5.54;86.90;103094.25;4934469;29;20495;-66
2021/12/18 08:32:04;;;;;;;27.83;19.15;;;;;;;5.70;86.00;103091.78;4937968;29;20050;-66
2021/12/18 08:34:31;;;;;;;29.58;20.33;;;;;;;5.94;85.11;103095.59;4936394;29;20056;-66
2021/12/18 08:36:59;;;;;;;29.83;19.65;;;;;;;5.97;84.33;103102.50;4931938;29;20048;-66
2021/12/18 08:39:27;;;;;;;34.75;19.60;;;;;;;6.23;83.23;103089.41;4929476;29;20066;-65
2021/12/18 08:41:55;;;;;;;28.33;19.55;;;;;;;6.19;83.05;103096.38;4934541;29;20039;-66
2021/12/18 08:44:23;;;;;;;27.50;19.20;;;;;;;6.19;82.49;103093.66;4938899;29;20054;-65
2021/12/18 08:46:50;;;;;;;27.45;18.75;;;;;;;6.24;82.66;103099.28;4934638;29;20058;-65
2021/12/18 08:49:18;;;;;;;25.77;18.40;;;;;;;6.02;82.70;103089.84;4921711;29;20044;-66
2021/12/18 08:51:45;;;;;;;28.45;19.40;;;;;;;6.05;83.03;103096.78;4939533;29;20142;-66
2021/12/18 08:54:12;;;;;;;30.38;18.85;;;;;;;6.11;83.16;103099.44;4938890;29;20048;-65
2021/12/18 08:57:00;;;;;;;29.20;19.48;;;;;;;5.84;83.85;103098.00;4937910;29;20066;-68
2021/12/18 08:59:27;;;;;;;27.30;19.05;;;;;;;5.92;84.50;103100.47;4914967;29;20063;-65
2021/12/18 09:01:54;;;;;;;31.65;19.88;;;;;;;6.06;83.85;103103.91;4936427;29;21406;-67
2021/12/18 09:04:21;;;;;;;27.63;18.27;;;;;;;5.68;84.44;103098.53;4939023;29;20058;-67
2021/12/18 09:06:49;;;;;;;26.42;19.35;;;;;;;5.66;84.79;103097.94;4936386;29;20056;-66
2021/12/18 09:09:16;;;;;;;27.95;18.45;;;;;;;5.63;85.14;103091.00;4938287;29;20059;-67
2021/12/18 09:11:44;;;;;;;29.48;18.05;;;;;;;5.61;84.79;103095.03;4933331;28;20086;-67
2021/12/18 09:14:11;;;;;;;27.92;18.48;;;;;;;5.86;84.84;103092.31;4935657;29;20052;-68
2021/12/18 09:16:41;;;;;;;31.77;18.30;;;;;;;6.14;83.25;103088.03;4929773;29;20056;-66
2021/12/18 09:19:08;;;;;;;35.53;18.73;;;;;;;6.12;82.53;103083.88;4936790;29;20051;-66
2021/12/18 09:21:39;;;;;;;28.65;18.88;;;;;;;6.01;83.08;103082.69;4940185;28;20048;-66
2021/12/18 09:24:06;;;;;;;28.77;18.73;;;;;;;6.03;82.61;103085.22;4921491;29;20055;-67
2021/12/18 09:26:34;;;;;;;29.48;17.85;;;;;;;6.06;83.44;103082.00;4938426;29;20549;-67
2021/12/18 09:29:01;;;;;;;27.17;18.13;;;;;;;6.18;82.92;103077.47;4935772;29;20056;-67
2021/12/18 09:31:32;;;;;;;28.75;18.05;;;;;;;6.16;82.19;103071.38;4935459;29;20051;-66
2021/12/18 09:33:59;;;;;;;29.10;18.90;;;;;;;5.71;83.31;103068.84;4902795;29;20055;-66
2021/12/18 09:36:27;;;;;;;29.30;19.20;;;;;;;5.65;84.58;103069.75;4937727;29;20051;-67
2021/12/18 09:38:54;;;;;;;27.25;18.38;;;;;;;5.47;84.56;103074.31;4936849;29;20058;-65
2021/12/18 09:41:23;;;;;;;28.95;18.80;;;;;;;5.83;84.42;103079.91;4935315;29;20052;-66
2021/12/18 09:43:52;;;;;;;28.48;18.08;;;;;;;6.31;84.72;103067.19;4932777;29;20048;-67
2021/12/18 09:46:19;;;;;;;28.30;18.35;;;;;;;6.40;81.68;103070.47;4930310;29;20499;-67
2021/12/18 09:48:47;;;;;;;29.58;18.00;;;;;;;6.25;81.28;103076.34;4946358;29;20518;-66
2021/12/18 09:51:23;;;;;;;27.77;17.98;;;;;;;5.89;82.30;103073.56;4938068;29;20534;-67
2021/12/18 09:53:52;;;;;;;27.40;18.55;;;;;;;5.58;84.00;103081.78;4930917;29;20056;-67
2021/12/18 09:56:21;;;;;;;34.65;19.42;;;;;;;5.73;83.50;103069.47;4933758;29;20104;-66
2021/12/18 09:58:49;;;;;;;30.70;19.08;;;;;;;5.83;83.18;103076.34;4940266;29;20047;-66
2021/12/18 10:01:16;;;;;;;29.92;19.20;;;;;;;5.89;82.34;103080.94;4935724;29;20047;-70
2021/12/18 10:03:58;;;;;;;27.63;18.45;;;;;;;5.73;83.09;103069.47;4942520;29;20063;-66
2021/12/18 10:06:44;;;;;;;29.98;18.65;;;;;;;6.10;82.29;103067.66;4938857;29;20052;-65
2021/12/18 10:09:18;;;;;;;28.42;18.23;;;;;;;5.83;82.06;103060.78;4933561;29;20059;-66
2021/12/18 10:11:49;;;;;;;29.35;18.42;;;;;;;6.01;82.24;103066.28;4927914;29;20059;-66
2021/12/18 10:14:18;;;;;;;28.10;18.08;;;;;;;6.17;81.18;103065.66;4938153;29;20487;-66
2021/12/18 10:16:51;;;;;;;29.03;18.30;;;;;;;6.15;81.34;103062.34;4918879;29;20048;-66
2021/12/18 10:19:39;;;;;;;34.90;18.55;;;;;;;6.31;80.65;103058.19;4920496;29;20303;-67
2021/12/18 10:22:08;;;;;;;25.10;17.42;;;;;;;6.45;80.44;103059.69;4937625;29;20044;-67
2021/12/18 10:24:39;;;;;;;32.53;18.40;;;;;;;5.92;81.09;103062.16;4932548;29;20071;-67
2021/12/18 10:27:22;;;;;;;28.33;18.23;;;;;;;5.99;80.79;103062.94;4931497;29;20056;-69
2021/12/18 10:29:51;;;;;;;27.08;16.95;;;;;;;5.95;80.79;103063.59;4936734;29;20044;-68
2021/12/18 10:32:20;;;;;;;29.02;17.90;;;;;;;6.04;80.76;103056.78;4933115;29;20059;-65
2021/12/18 10:34:54;;;;;;;27.17;17.50;;;;;;;5.95;80.97;103050.78;4932468;29;20052;-67
2021/12/18 10:37:25;;;;;;;27.33;17.95;;;;;;;6.20;81.15;103051.56;4929621;29;20055;-65
2021/12/18 10:39:58;;;;;;;26.70;17.73;;;;;;;6.06;80.78;103046.44;4928126;29;20055;-65
2021/12/18 10:42:39;;;;;;;26.98;17.23;;;;;;;6.39;80.35;103045.03;4935950;29;20055;-64
2021/12/18 10:45:15;;;;;;;27.65;17.30;;;;;;;6.33;79.21;103045.91;4931738;29;20043;-65
2021/12/18 10:47:56;;;;;;;35.25;16.98;;;;;;;6.31;79.87;103050.78;4934782;29;20536;-65
2021/12/18 10:50:48;;;;;;;27.98;17.27;;;;;;;6.56;78.94;103045.22;4932097;29;20052;-64
2021/12/18 10:53:23;;;;;;;27.67;18.00;;;;;;;6.92;77.96;103033.38;4930727;29;20107;-66
2021/12/18 10:55:58;;;;;;;25.30;16.75;;;;;;;6.83;77.02;103027.38;4933603;29;20067;-65
2021/12/18 10:58:37;;;;;;;26.98;17.15;;;;;;;6.62;78.20;103034.19;4935548;29;20064;-66
2021/12/18 11:01:13;;;;;;;26.92;17.27;;;;;;;6.72;78.09;103026.25;4932874;29;20063;-67
2021/12/18 11:03:45;;;;;;;27.00;16.83;;;;;;;6.72;77.61;103026.25;4917378;29;20059;-68
2021/12/18 11:06:12;;;;;;;26.25;17.40;;;;;;;6.82;77.70;103023.78;4932089;28;20054;-65
2021/12/18 11:09:04;;;;;;;27.38;17.63;;;;;;;6.87;76.65;103019.53;4932981;29;20415;-68
2021/12/18 11:14:19;;;;;;;24.27;16.13;;;;;;;7.24;75.92;103016.41;4935809;29;20511;-68
2021/12/18 11:16:48;;;;;;;28.30;17.27;;;;;;;6.83;76.44;103010.94;4933951;29;20392;-67
2021/12/18 11:19:19;;;;;;;28.80;17.20;;;;;;;7.01;76.57;103005.38;4930821;29;20154;-68
2021/12/18 11:21:55;;;;;;;23.48;16.17;;;;;;;7.06;76.15;103023.88;4935604;29;20048;-67
2021/12/18 11:24:31;;;;;;;29.77;16.60;;;;;;;6.91;76.78;103018.81;4932484;29;20063;-66
2021/12/18 11:26:58;;;;;;;26.38;16.67;;;;;;;7.21;75.98;103019.63;4929125;29;20514;-68
2021/12/18 11:29:44;;;;;;;22.85;15.68;;;;;;;7.29;75.41;103016.53;4931603;29;20063;-67
2021/12/18 11:32:25;;;;;;;24.70;16.55;;;;;;;7.39;74.66;103016.78;4929417;29;20063;-66
2021/12/18 11:35:04;;;;;;;24.17;16.55;;;;;;;7.35;75.41;103021.09;4929551;29;20056;-67
2021/12/18 11:37:45;;;;;;;27.45;16.00;;;;;;;7.18;75.35;103019.25;4925897;29;20040;-67
2021/12/18 11:40:24;;;;;;;26.08;16.90;;;;;;;7.08;75.95;103010.78;4929880;29;20484;-69
2021/12/18 11:42:51;;;;;;;25.05;16.25;;;;;;;7.21;75.75;103003.19;4939556;29;20058;-68
2021/12/18 11:45:19;;;;;;;25.70;16.77;;;;;;;7.31;75.70;103002.59;4935481;29;20052;-69
2021/12/18 11:48:00;;;;;;;26.08;16.05;;;;;;;7.67;74.76;102988.69;4937206;29;20052;-67
2021/12/18 11:50:32;;;;;;;25.52;17.25;;;;;;;7.52;74.38;102994.63;4939956;29;20043;-68
2021/12/18 11:53:14;;;;;;;26.60;16.55;;;;;;;7.63;73.99;102996.56;4941860;29;20040;-65
2021/12/18 11:55:50;;;;;;;24.60;16.13;;;;;;;7.55;73.77;102998.81;4938943;29;20523;-66
2021/12/18 11:58:20;;;;;;;34.67;16.23;;;;;;;7.76;73.79;102993.56;4936332;29;20064;-66
2021/12/18 12:00:47;;;;;;;;;;;;;;;7.84;72.97;102982.25;4930286;29;20082;-66
2021/12/18 12:03:44;;;;;;;23.42;15.18;;;;;;;7.88;73.34;102974.31;4950842;29;19930;-68
2021/12/18 12:06:24;;;;;;;28.67;16.30;;;;;;;8.09;72.13;102979.19;4928765;29;20052;-66
2021/12/18 12:09:15;;;;;;;25.45;15.90;;;;;;;7.83;72.61;102979.72;4929363;29;20059;-66
2021/12/18 12:11:56;;;;;;;27.85;16.15;;;;;;;7.84;72.51;102967.69;4914665;29;20083;-67
2021/12/18 12:14:26;;;;;;;24.77;15.57;;;;;;;7.81;73.49;102962.69;4937619;29;20139;-68
2021/12/18 12:17:05;;;;;;;24.38;16.08;;;;;;;7.99;72.98;102965.25;4939266;29;20047;-68